createdAt,value
2018-07-01T00:00:32.619Z,16.80
2018-07-01T00:03:00.989Z,16.80
2018-07-01T00:05:29.339Z,16.80
2018-07-01T00:07:57.723Z,16.70
2018-07-01T00:10:26.074Z,16.60
2018-07-01T00:12:54.405Z,16.70
2018-07-01T00:15:22.756Z,16.60
2018-07-01T00:17:51.111Z,16.60
2018-07-01T00:20:19.456Z,16.60
2018-07-01T00:22:47.794Z,16.50
2018-07-01T00:25:16.091Z,16.50
2018-07-01T00:27:44.400Z,16.40
2018-07-01T00:30:12.751Z,16.30
2018-07-01T00:32:41.070Z,16.20
2018-07-01T00:35:09.407Z,16.20
2018-07-01T00:37:37.718Z,16.20
2018-07-01T00:40:06.065Z,16.10
2018-07-01T00:42:34.442Z,16.10
2018-07-01T00:45:02.835Z,16.10
2018-07-01T00:47:31.237Z,16.00
2018-07-01T00:52:27.673Z,15.90
2018-07-01T00:54:56.062Z,15.90
2018-07-01T00:59:52.428Z,15.80
2018-07-01T01:02:20.779Z,15.80
2018-07-01T01:04:49.147Z,15.80
2018-07-01T01:07:18.333Z,15.70
2018-07-01T01:09:46.664Z,15.60
2018-07-01T01:12:14.989Z,15.60
2018-07-01T01:14:43.379Z,15.60
2018-07-01T01:17:11.730Z,15.50
2018-07-01T01:19:40.084Z,15.50
2018-07-01T01:22:08.400Z,15.40
2018-07-01T01:24:36.723Z,15.40
2018-07-01T01:27:05.064Z,15.40
2018-07-01T01:29:33.427Z,15.40
2018-07-01T01:32:01.766Z,15.30
2018-07-01T01:34:30.196Z,15.30
2018-07-01T01:36:58.608Z,15.20
2018-07-01T01:39:29.768Z,15.20
2018-07-01T01:42:01.602Z,15.10
2018-07-01T01:44:36.721Z,15.10
2018-07-01T01:47:09.513Z,15.00
2018-07-01T01:52:17.748Z,14.90
2018-07-01T01:54:50.515Z,14.90
2018-07-01T01:57:28.730Z,14.90
2018-07-01T02:00:00.962Z,14.80
2018-07-01T02:02:40.520Z,14.80
2018-07-01T02:05:14.282Z,14.70
2018-07-01T02:07:53.936Z,13.50
2018-07-01T02:10:22.348Z,14.60
2018-07-01T02:12:50.702Z,14.60
2018-07-01T02:15:22.518Z,12.30
2018-07-01T02:17:52.424Z,14.60
2018-07-01T02:20:22.983Z,14.60
2018-07-01T02:22:58.715Z,14.60
2018-07-01T02:25:29.269Z,14.50
2018-07-01T02:27:57.661Z,14.60
2018-07-01T02:30:26.007Z,14.50
2018-07-01T02:32:54.290Z,14.50
2018-07-01T02:35:22.674Z,14.60
2018-07-01T02:37:51.009Z,14.50
2018-07-01T02:40:19.378Z,14.50
2018-07-01T02:42:47.714Z,14.50
2018-07-01T02:45:16.026Z,14.50
2018-07-01T02:47:44.342Z,14.50
2018-07-01T02:52:40.737Z,14.50
2018-07-01T02:55:09.104Z,14.40
2018-07-01T02:57:37.411Z,14.30
2018-07-01T03:00:05.806Z,14.30
2018-07-01T03:02:34.150Z,14.10
2018-07-01T03:05:02.489Z,14.10
2018-07-01T03:07:30.814Z,14.10
2018-07-01T03:09:59.146Z,14.10
2018-07-01T03:12:27.481Z,14.10
2018-07-01T03:14:55.823Z,14.10
2018-07-01T03:17:25.943Z,14.10
2018-07-01T03:19:54.291Z,14.10
2018-07-01T03:22:22.578Z,14.10
2018-07-01T03:24:51.226Z,14.10
2018-07-01T03:27:19.568Z,14.00
2018-07-01T03:29:47.912Z,14.10
2018-07-01T03:32:16.231Z,14.10
2018-07-01T03:34:44.592Z,14.10
2018-07-01T03:37:12.915Z,14.10
2018-07-01T03:39:41.259Z,14.00
2018-07-01T03:42:09.562Z,13.90
2018-07-01T03:44:37.893Z,13.90
2018-07-01T03:47:06.225Z,13.90
2018-07-01T03:49:34.545Z,13.90
2018-07-01T03:52:02.864Z,13.90
2018-07-01T03:54:31.199Z,13.90
2018-07-01T03:56:59.501Z,13.90
2018-07-01T03:59:27.862Z,13.90
2018-07-01T04:01:56.149Z,13.90
2018-07-01T04:04:24.481Z,13.90
2018-07-01T04:06:52.889Z,13.90
2018-07-01T04:09:21.202Z,13.90
2018-07-01T04:11:49.521Z,13.90
2018-07-01T04:14:17.801Z,14.00
2018-07-01T04:16:46.133Z,14.00
2018-07-01T04:19:14.485Z,14.10
2018-07-01T04:21:42.778Z,14.20
2018-07-01T04:24:11.094Z,14.20
2018-07-01T04:26:39.384Z,14.30
2018-07-01T04:31:35.779Z,14.40
2018-07-01T04:34:04.105Z,14.40
2018-07-01T04:36:32.484Z,14.50
2018-07-01T04:39:00.842Z,14.60
2018-07-01T04:41:29.192Z,14.70
2018-07-01T04:43:57.531Z,14.70
2018-07-01T04:46:25.933Z,14.80
2018-07-01T04:48:54.258Z,14.80
2018-07-01T04:51:22.686Z,14.90
2018-07-01T04:53:51.025Z,15.10
2018-07-01T04:56:19.856Z,15.10
2018-07-01T04:58:48.206Z,15.00
2018-07-01T05:06:12.615Z,15.40
2018-07-01T05:08:40.927Z,15.30
2018-07-01T05:11:09.257Z,15.40
2018-07-01T05:13:37.637Z,15.50
2018-07-01T05:16:05.941Z,15.60
2018-07-01T05:18:34.295Z,15.60
2018-07-01T05:21:02.643Z,15.60
2018-07-01T05:23:30.951Z,15.80
2018-07-01T05:25:59.281Z,15.90
2018-07-01T05:28:27.584Z,16.00
2018-07-01T05:30:55.921Z,16.10
2018-07-01T05:33:24.271Z,16.30
2018-07-01T05:35:52.652Z,16.50
2018-07-01T05:38:21.019Z,16.60
2018-07-01T05:40:49.361Z,16.90
2018-07-01T05:43:17.766Z,17.10
2018-07-01T05:45:46.197Z,17.20
2018-07-01T05:48:14.955Z,17.60
2018-07-01T05:50:43.373Z,17.50
2018-07-01T05:53:11.703Z,17.30
2018-07-01T05:55:40.116Z,17.40
2018-07-01T05:58:08.452Z,17.50
2018-07-01T06:00:36.782Z,17.80
2018-07-01T06:03:05.198Z,18.00
2018-07-01T06:05:33.601Z,17.90
2018-07-01T06:08:01.936Z,18.10
2018-07-01T06:10:30.302Z,18.00
2018-07-01T06:12:58.667Z,18.10
2018-07-01T06:15:27.088Z,18.20
2018-07-01T06:17:55.404Z,18.10
2018-07-01T06:20:23.775Z,18.10
2018-07-01T06:22:52.122Z,18.20
2018-07-01T06:25:20.455Z,18.40
2018-07-01T06:27:48.814Z,18.30
2018-07-01T06:30:17.178Z,18.40
2018-07-01T06:32:45.656Z,18.50
2018-07-01T06:35:14.053Z,18.70
2018-07-01T06:40:10.601Z,19.00
2018-07-01T06:42:38.936Z,18.90
2018-07-01T06:45:07.342Z,18.70
2018-07-01T06:50:03.864Z,18.70
2018-07-01T06:52:32.242Z,19.00
2018-07-01T06:55:00.964Z,19.30
2018-07-01T06:57:31.107Z,19.70
2018-07-01T07:00:00.058Z,20.10
2018-07-01T07:02:28.493Z,20.20
2018-07-01T07:04:57.347Z,20.20
2018-07-01T07:07:25.679Z,20.40
2018-07-01T07:09:54.049Z,20.50
2018-07-01T07:12:22.377Z,20.60
2018-07-01T07:17:18.903Z,20.80
2018-07-01T07:19:47.206Z,21.20
2018-07-01T07:22:15.538Z,21.50
2018-07-01T07:24:43.902Z,21.50
2018-07-01T07:27:12.263Z,21.90
2018-07-01T07:29:40.687Z,22.40
2018-07-01T07:32:09.106Z,21.70
2018-07-01T07:34:37.501Z,21.30
2018-07-01T07:37:05.848Z,21.20
2018-07-01T07:39:34.225Z,21.90
2018-07-01T07:42:02.717Z,22.90
2018-07-01T07:46:59.190Z,22.60
2018-07-01T07:49:27.645Z,22.30
2018-07-01T07:51:56.026Z,22.80
2018-07-01T07:54:24.392Z,23.20
2018-07-01T07:56:52.814Z,23.10
2018-07-01T07:59:21.254Z,22.70
2018-07-01T08:01:49.574Z,22.30
2018-07-01T08:04:17.989Z,21.90
2018-07-01T08:06:46.419Z,22.20
2018-07-01T08:09:14.847Z,21.80
2018-07-01T08:11:43.214Z,22.00
2018-07-01T08:14:11.757Z,22.20
2018-07-01T08:16:40.182Z,22.10
2018-07-01T08:19:08.837Z,22.20
2018-07-01T08:21:37.226Z,22.40
2018-07-01T08:24:05.631Z,22.30
2018-07-01T08:26:33.979Z,22.10
2018-07-01T08:29:02.414Z,22.20
2018-07-01T08:31:30.745Z,22.20
2018-07-01T08:33:59.268Z,22.10
2018-07-01T08:36:27.723Z,22.40
2018-07-01T08:38:56.150Z,22.50
2018-07-01T08:41:24.570Z,22.60
2018-07-01T08:43:53.501Z,22.50
2018-07-01T08:46:21.896Z,22.90
2018-07-01T08:48:50.291Z,23.60
2018-07-01T08:51:18.677Z,23.60
2018-07-01T08:53:47.127Z,23.10
2018-07-01T08:56:15.570Z,23.00
2018-07-01T08:58:43.912Z,23.30
2018-07-01T09:01:12.315Z,23.30
2018-07-01T09:03:40.695Z,23.10
2018-07-01T09:06:09.317Z,23.00
2018-07-01T09:08:37.739Z,23.00
2018-07-01T09:11:06.091Z,22.70
2018-07-01T09:13:34.508Z,22.70
2018-07-01T09:16:02.897Z,23.00
2018-07-01T09:18:31.318Z,22.60
2018-07-01T09:21:00.288Z,22.70
2018-07-01T09:23:28.788Z,22.80
2018-07-01T09:25:57.114Z,23.10
2018-07-01T09:28:25.542Z,22.90
2018-07-01T09:30:53.913Z,22.60
2018-07-01T09:33:22.286Z,22.60
2018-07-01T09:35:50.656Z,22.30
2018-07-01T09:38:19.155Z,22.50
2018-07-01T09:40:47.643Z,22.60
2018-07-01T09:43:16.024Z,22.70
2018-07-01T09:45:44.358Z,22.80
2018-07-01T09:48:12.693Z,23.20
2018-07-01T09:53:09.225Z,23.20
2018-07-01T09:55:37.589Z,23.10
2018-07-01T09:58:06.083Z,22.80
2018-07-01T10:00:34.496Z,22.80
2018-07-01T10:03:02.858Z,23.10
2018-07-01T10:05:31.202Z,23.20
2018-07-01T10:07:59.583Z,23.40
2018-07-01T10:10:28.009Z,23.40
2018-07-01T10:12:56.427Z,23.30
2018-07-01T10:15:24.826Z,23.20
2018-07-01T10:17:53.211Z,23.10
2018-07-01T10:20:21.621Z,23.40
2018-07-01T10:22:50.030Z,23.50
2018-07-01T10:25:18.461Z,23.50
2018-07-01T10:27:46.821Z,23.40
2018-07-01T10:30:15.265Z,23.00
2018-07-01T10:32:43.651Z,23.30
2018-07-01T10:35:12.118Z,23.60
2018-07-01T10:37:40.510Z,23.70
2018-07-01T10:40:08.960Z,23.90
2018-07-01T10:42:37.529Z,23.80
2018-07-01T10:45:06.353Z,23.70
2018-07-01T10:47:34.712Z,23.70
2018-07-01T10:50:03.149Z,23.50
2018-07-01T10:52:31.707Z,23.90
2018-07-01T10:55:00.100Z,23.80
2018-07-01T10:57:29.134Z,23.50
2018-07-01T10:59:58.069Z,23.70
2018-07-01T11:02:28.019Z,24.00
2018-07-01T11:04:56.413Z,24.30
2018-07-01T11:07:24.805Z,24.70
2018-07-01T11:09:53.182Z,24.20
2018-07-01T11:12:21.568Z,24.00
2018-07-01T11:14:49.961Z,24.00
2018-07-01T11:17:18.353Z,24.20
2018-07-01T11:19:46.731Z,24.30
2018-07-01T11:22:15.193Z,24.30
2018-07-01T11:24:43.605Z,24.60
2018-07-01T11:27:12.119Z,24.60
2018-07-01T11:29:40.460Z,24.50
2018-07-01T11:32:08.872Z,24.20
2018-07-01T11:34:37.342Z,24.30
2018-07-01T11:37:05.699Z,24.50
2018-07-01T11:39:34.069Z,24.50
2018-07-01T11:42:02.472Z,24.60
2018-07-01T11:44:30.840Z,24.60
2018-07-01T11:46:59.282Z,24.90
2018-07-01T11:49:27.646Z,25.30
2018-07-01T11:51:56.045Z,25.50
2018-07-01T11:54:24.514Z,25.10
2018-07-01T11:56:52.891Z,25.30
2018-07-01T11:59:21.293Z,25.50
2018-07-01T12:01:49.657Z,25.20
2018-07-01T12:04:20.821Z,24.90
2018-07-01T12:06:49.178Z,25.40
2018-07-01T12:09:17.645Z,25.60
2018-07-01T12:11:46.069Z,25.90
2018-07-01T12:14:14.459Z,25.70
2018-07-01T12:16:42.928Z,26.30
2018-07-01T12:19:11.324Z,26.30
2018-07-01T12:21:39.707Z,26.10
2018-07-01T12:24:08.125Z,26.20
2018-07-01T12:26:36.690Z,26.20
2018-07-01T12:29:05.189Z,27.10
2018-07-01T12:31:33.645Z,27.60
2018-07-01T12:34:02.071Z,27.30
2018-07-01T12:36:30.469Z,27.60
2018-07-01T12:38:58.899Z,28.30
2018-07-01T12:41:27.289Z,28.20
2018-07-01T12:43:55.918Z,28.20
2018-07-01T12:46:24.308Z,27.40
2018-07-01T12:48:52.692Z,28.00
2018-07-01T12:51:21.071Z,28.60
2018-07-01T12:53:49.451Z,28.90
2018-07-01T12:56:17.885Z,28.70
2018-07-01T12:58:46.409Z,28.50
2018-07-01T13:01:14.878Z,28.30
2018-07-01T13:03:43.296Z,28.60
2018-07-01T13:06:11.686Z,28.90
2018-07-01T13:08:40.140Z,28.50
2018-07-01T13:11:08.514Z,27.70
2018-07-01T13:13:36.860Z,26.90
2018-07-01T13:16:05.278Z,26.50
2018-07-01T13:18:33.703Z,26.30
2018-07-01T13:21:02.154Z,26.20
2018-07-01T13:23:30.533Z,26.30
2018-07-01T13:25:58.970Z,27.10
2018-07-01T13:28:27.302Z,27.40
2018-07-01T13:30:55.692Z,27.30
2018-07-01T13:33:24.097Z,27.90
2018-07-01T13:35:52.492Z,28.10
2018-07-01T13:38:20.835Z,27.70
2018-07-01T13:40:49.179Z,28.20
2018-07-01T13:43:17.530Z,27.50
2018-07-01T13:45:45.945Z,27.30
2018-07-01T13:48:14.293Z,27.60
2018-07-01T13:50:42.689Z,28.50
2018-07-01T13:53:11.085Z,29.20
2018-07-01T13:55:39.484Z,29.70
2018-07-01T13:58:07.857Z,29.90
2018-07-01T14:00:36.324Z,30.20
2018-07-01T14:05:32.763Z,30.40
2018-07-01T14:08:01.117Z,29.70
2018-07-01T14:10:29.522Z,29.80
2018-07-01T14:15:25.940Z,29.80
2018-07-01T14:17:54.384Z,28.50
2018-07-01T14:20:22.741Z,28.50
2018-07-01T14:25:19.978Z,29.00
2018-07-01T14:27:48.350Z,29.90
2018-07-01T14:30:16.704Z,30.30
2018-07-01T14:32:45.139Z,29.70
2018-07-01T14:35:13.522Z,29.90
2018-07-01T14:37:41.905Z,29.80
2018-07-01T14:40:10.339Z,30.20
2018-07-01T14:42:38.697Z,30.20
2018-07-01T14:45:07.049Z,30.10
2018-07-01T14:47:35.441Z,30.20
2018-07-01T14:50:03.939Z,30.00
2018-07-01T14:52:32.284Z,28.90
2018-07-01T14:55:00.635Z,28.80
2018-07-01T14:57:29.113Z,29.30
2018-07-01T14:59:57.452Z,29.00
2018-07-01T15:02:25.812Z,28.80
2018-07-01T15:04:54.202Z,29.40
2018-07-01T15:07:22.521Z,29.40
2018-07-01T15:09:50.891Z,29.00
2018-07-01T15:12:19.818Z,28.50
2018-07-01T15:14:48.217Z,28.60
2018-07-01T15:17:16.603Z,28.50
2018-07-01T15:19:44.980Z,29.50
2018-07-01T15:22:13.375Z,30.30
2018-07-01T15:24:41.776Z,30.30
2018-07-01T15:27:10.177Z,29.90
2018-07-01T15:29:38.578Z,30.50
2018-07-01T15:32:07.141Z,30.70
2018-07-01T15:34:35.489Z,30.40
2018-07-01T15:37:03.862Z,30.80
2018-07-01T15:39:32.197Z,30.40
2018-07-01T15:42:00.561Z,30.60
2018-07-01T15:44:28.979Z,29.50
2018-07-01T15:46:57.419Z,29.50
2018-07-01T15:49:25.774Z,29.60
2018-07-01T15:51:54.221Z,29.50
2018-07-01T15:54:22.649Z,29.90
2018-07-01T15:56:50.971Z,30.10
2018-07-01T15:59:19.309Z,29.60
2018-07-01T16:01:47.670Z,29.40
2018-07-01T16:04:16.056Z,29.10
2018-07-01T16:06:44.430Z,29.40
2018-07-01T16:09:12.809Z,29.10
2018-07-01T16:11:41.477Z,28.60
2018-07-01T16:14:10.730Z,29.20
2018-07-01T16:16:39.070Z,28.70
2018-07-01T16:19:07.561Z,28.70
2018-07-01T16:21:35.864Z,28.70
2018-07-01T16:24:04.220Z,29.30
2018-07-01T16:26:37.785Z,29.50
2018-07-01T16:29:06.152Z,29.00
2018-07-01T16:31:34.563Z,29.20
2018-07-01T16:34:02.998Z,29.00
2018-07-01T16:36:31.522Z,28.90
2018-07-01T16:38:59.962Z,29.30
2018-07-01T16:41:28.543Z,29.20
2018-07-01T16:43:57.265Z,29.20
2018-07-01T16:46:25.652Z,29.10
2018-07-01T16:48:54.026Z,28.90
2018-07-01T16:51:22.392Z,28.80
2018-07-01T16:53:50.785Z,28.10
2018-07-01T16:56:19.187Z,27.90
2018-07-01T16:58:47.527Z,27.90
2018-07-01T17:01:15.896Z,27.90
2018-07-01T17:03:44.276Z,28.10
2018-07-01T17:06:12.611Z,27.60
2018-07-01T17:08:40.984Z,27.30
2018-07-01T17:11:09.556Z,27.30
2018-07-01T17:13:38.044Z,27.10
2018-07-01T17:16:06.566Z,26.30
2018-07-01T17:18:34.992Z,26.10
2018-07-01T17:21:03.421Z,26.10
2018-07-01T17:23:31.814Z,25.70
2018-07-01T17:26:00.164Z,25.70
2018-07-01T17:28:28.552Z,25.70
2018-07-01T17:31:02.239Z,25.30
2018-07-01T17:33:33.078Z,25.00
2018-07-01T17:36:01.425Z,24.70
2018-07-01T17:38:29.792Z,24.60
2018-07-01T17:40:58.152Z,24.40
2018-07-01T17:43:26.497Z,24.20
2018-07-01T17:45:54.928Z,24.00
2018-07-01T17:48:24.014Z,23.80
2018-07-01T17:50:52.407Z,23.60
2018-07-01T17:53:32.316Z,23.50
2018-07-01T17:56:00.711Z,23.50
2018-07-01T17:58:29.067Z,23.40
2018-07-01T18:00:57.402Z,23.20
2018-07-01T18:03:25.762Z,23.10
2018-07-01T18:05:54.101Z,23.10
2018-07-01T18:08:22.487Z,23.10
2018-07-01T18:10:50.867Z,23.10
2018-07-01T18:13:19.242Z,23.00
2018-07-01T18:15:47.729Z,23.00
2018-07-01T18:18:16.211Z,22.90
2018-07-01T18:20:44.897Z,22.90
2018-07-01T18:23:44.880Z,22.80
2018-07-01T18:25:41.629Z,22.70
2018-07-01T18:28:22.700Z,22.70
2018-07-01T18:30:38.443Z,22.70
2018-07-01T18:33:07.415Z,22.60
2018-07-01T18:35:35.791Z,22.60
2018-07-01T18:38:04.309Z,22.60
2018-07-01T18:40:32.733Z,22.50
2018-07-01T18:43:01.233Z,22.40
2018-07-01T18:45:29.669Z,22.30
2018-07-01T18:47:58.586Z,22.20
2018-07-01T18:50:27.052Z,22.10
2018-07-01T18:52:55.480Z,21.90
2018-07-01T18:55:23.946Z,21.80
2018-07-01T18:57:52.493Z,21.70
2018-07-01T19:00:20.965Z,21.70
2018-07-01T19:02:49.342Z,21.60
2018-07-01T19:05:17.713Z,21.60
2018-07-01T19:07:46.118Z,21.50
2018-07-01T19:10:14.664Z,21.30
2018-07-01T19:12:43.032Z,21.10
2018-07-01T19:15:11.484Z,21.00
2018-07-01T19:17:39.829Z,21.00
2018-07-01T19:20:08.145Z,20.90
2018-07-01T19:22:36.473Z,20.90
2018-07-01T19:25:04.886Z,20.80
2018-07-01T19:27:33.284Z,20.50
2018-07-01T19:30:01.661Z,20.40
2018-07-01T19:32:30.035Z,20.30
2018-07-01T19:34:58.529Z,20.30
2018-07-01T19:37:26.925Z,20.20
2018-07-01T19:39:55.346Z,20.10
2018-07-01T19:44:51.854Z,19.80
2018-07-01T19:47:20.281Z,19.70
2018-07-01T19:49:48.648Z,19.70
2018-07-01T19:54:45.552Z,19.50
2018-07-01T19:57:13.893Z,19.40
2018-07-01T19:59:42.305Z,19.20
2018-07-01T20:02:10.704Z,19.20
2018-07-01T20:04:39.096Z,19.00
2018-07-01T20:07:07.747Z,18.90
2018-07-01T20:09:36.148Z,18.70
2018-07-01T20:12:04.605Z,18.60
2018-07-01T20:14:33.088Z,18.50
2018-07-01T20:17:01.498Z,18.50
2018-07-01T20:19:29.907Z,18.40
2018-07-01T20:21:58.329Z,18.50
2018-07-01T20:24:26.702Z,18.40
2018-07-01T20:26:55.079Z,18.40
2018-07-01T20:29:23.410Z,18.30
2018-07-01T20:31:51.783Z,18.20
2018-07-01T20:34:20.173Z,18.10
2018-07-01T20:36:48.694Z,18.00
2018-07-01T20:39:17.086Z,17.90
2018-07-01T20:41:45.476Z,17.80
2018-07-01T20:44:13.849Z,17.70
2018-07-01T20:46:42.233Z,17.50
2018-07-01T20:49:10.644Z,17.30
2018-07-01T20:51:39.005Z,17.20
2018-07-01T20:54:07.333Z,17.10
2018-07-01T20:56:35.723Z,17.00
2018-07-01T20:59:04.150Z,16.90
2018-07-01T21:01:32.611Z,16.80
2018-07-01T21:04:01.028Z,16.70
2018-07-01T21:06:29.386Z,16.50
2018-07-01T21:08:57.816Z,16.40
2018-07-01T21:11:26.158Z,16.30
2018-07-01T21:13:54.611Z,16.30
2018-07-01T21:16:22.941Z,16.30
2018-07-01T21:18:51.308Z,16.30
2018-07-01T21:21:19.668Z,16.20
2018-07-01T21:23:48.047Z,16.10
2018-07-01T21:26:16.387Z,16.00
2018-07-01T21:28:44.752Z,15.90
2018-07-01T21:31:13.178Z,15.70
2018-07-01T21:33:41.557Z,15.60
2018-07-01T21:36:09.979Z,15.40
2018-07-01T21:38:38.342Z,15.40
2018-07-01T21:41:06.694Z,15.40
2018-07-01T21:46:03.237Z,15.20
2018-07-01T21:48:31.570Z,15.20
2018-07-01T21:50:59.902Z,15.20
2018-07-01T21:53:28.253Z,15.10
2018-07-01T21:55:56.585Z,15.20
2018-07-01T21:58:24.936Z,15.20
2018-07-01T22:03:21.385Z,15.10
2018-07-01T22:05:49.714Z,15.20
2018-07-01T22:08:18.065Z,15.20
2018-07-01T22:13:00.034Z,15.20
2018-07-01T22:15:39.513Z,15.20
2018-07-01T22:18:07.885Z,15.20
2018-07-01T22:20:36.265Z,15.10
2018-07-01T22:23:04.676Z,15.10
2018-07-01T22:25:33.034Z,15.20
2018-07-01T22:28:01.402Z,15.20
2018-07-01T22:30:29.764Z,15.30
2018-07-01T22:32:58.112Z,15.30
2018-07-01T22:35:26.445Z,15.30
2018-07-01T22:37:54.987Z,15.20
2018-07-01T22:40:23.434Z,15.10
2018-07-01T22:42:51.782Z,15.10
2018-07-01T22:45:20.152Z,15.10
2018-07-01T22:47:48.525Z,15.10
2018-07-01T22:50:16.925Z,15.00
2018-07-01T22:52:45.272Z,15.20
2018-07-01T22:57:41.699Z,15.60
2018-07-01T23:00:10.060Z,15.70
2018-07-01T23:02:54.830Z,15.70
2018-07-01T23:05:23.886Z,15.80
2018-07-01T23:07:52.367Z,15.90
2018-07-01T23:10:22.044Z,16.00
2018-07-01T23:12:51.101Z,16.00
2018-07-01T23:15:19.474Z,16.00
2018-07-01T23:17:47.893Z,16.00
2018-07-01T23:20:16.289Z,16.10
2018-07-01T23:22:44.634Z,16.00
2018-07-01T23:25:13.551Z,16.00
2018-07-01T23:27:42.629Z,16.10
2018-07-01T23:30:10.961Z,16.00
2018-07-01T23:32:39.338Z,16.00
2018-07-01T23:35:07.813Z,16.00
2018-07-01T23:37:36.183Z,16.00
2018-07-01T23:40:04.777Z,16.00
2018-07-01T23:42:33.151Z,16.00
2018-07-01T23:45:01.514Z,16.00
2018-07-01T23:47:29.949Z,16.00
2018-07-01T23:49:58.281Z,15.90
2018-07-01T23:52:26.635Z,16.00
2018-07-01T23:54:55.015Z,16.00
2018-07-01T23:57:23.369Z,15.90
2018-07-01T23:59:51.721Z,15.90
